sensor_id;sensor_type;location;lat;lon;timestamp;P1;durP1;ratioP1;P2;durP2;ratioP2
295;SDS011;132;48.770;9.200;2023-04-02T00:07:58;2.10;;;1.40;;
295;SDS011;132;48.770;9.200;2023-04-02T00:15:26;2.08;;;1.58;;
295;SDS011;132;48.770;9.200;2023-04-02T00:17:52;3.22;;;1.40;;
295;SDS011;132;48.770;9.200;2023-04-02T00:20:19;1.90;;;1.52;;
295;SDS011;132;48.770;9.200;2023-04-02T00:22:46;1.88;;;1.45;;
295;SDS011;132;48.770;9.200;2023-04-02T00:25:14;1.77;;;1.35;;
295;SDS011;132;48.770;9.200;2023-04-02T00:27:40;2.45;;;1.30;;
295;SDS011;132;48.770;9.200;2023-04-02T00:30:10;1.70;;;1.42;;
295;SDS011;132;48.770;9.200;2023-04-02T00:32:37;1.50;;;1.40;;
295;SDS011;132;48.770;9.200;2023-04-02T00:35:11;3.47;;;1.63;;
295;SDS011;132;48.770;9.200;2023-04-02T00:37:43;2.72;;;1.60;;
295;SDS011;132;48.770;9.200;2023-04-02T00:40:29;1.50;;;1.50;;
295;SDS011;132;48.770;9.200;2023-04-02T00:42:59;1.80;;;1.40;;
295;SDS011;132;48.770;9.200;2023-04-02T00:45:30;2.10;;;1.55;;
295;SDS011;132;48.770;9.200;2023-04-02T00:48:11;1.60;;;1.50;;
295;SDS011;132;48.770;9.200;2023-04-02T00:51:43;1.60;;;1.40;;
295;SDS011;132;48.770;9.200;2023-04-02T00:53:51;1.70;;;1.40;;
295;SDS011;132;48.770;9.200;2023-04-02T00:56:23;1.80;;;1.40;;
295;SDS011;132;48.770;9.200;2023-04-02T00:58:57;2.67;;;1.30;;
295;SDS011;132;48.770;9.200;2023-04-02T01:01:25;1.75;;;1.40;;
295;SDS011;132;48.770;9.200;2023-04-02T01:03:59;2.40;;;1.48;;
295;SDS011;132;48.770;9.200;2023-04-02T01:06:28;2.10;;;1.40;;
295;SDS011;132;48.770;9.200;2023-04-02T01:25:51;1.20;;;1.10;;
295;SDS011;132;48.770;9.200;2023-04-02T01:31:31;1.23;;;1.20;;
295;SDS011;132;48.770;9.200;2023-04-02T01:33:59;1.77;;;1.35;;
295;SDS011;132;48.770;9.200;2023-04-02T01:36:40;3.15;;;1.50;;
295;SDS011;132;48.770;9.200;2023-04-02T01:39:18;1.63;;;1.30;;
295;SDS011;132;48.770;9.200;2023-04-02T01:44:50;1.85;;;1.50;;
295;SDS011;132;48.770;9.200;2023-04-02T01:47:18;1.55;;;1.40;;
295;SDS011;132;48.770;9.200;2023-04-02T01:50:00;1.75;;;1.40;;
295;SDS011;132;48.770;9.200;2023-04-02T01:52:34;2.45;;;1.38;;
295;SDS011;132;48.770;9.200;2023-04-02T01:55:05;1.30;;;1.30;;
295;SDS011;132;48.770;9.200;2023-04-02T01:57:39;1.67;;;1.30;;
295;SDS011;132;48.770;9.200;2023-04-02T02:00:10;1.80;;;1.30;;
295;SDS011;132;48.770;9.200;2023-04-02T02:02:40;1.73;;;1.30;;
295;SDS011;132;48.770;9.200;2023-04-02T02:05:13;1.67;;;1.30;;
295;SDS011;132;48.770;9.200;2023-04-02T02:07:43;2.30;;;1.35;;
295;SDS011;132;48.770;9.200;2023-04-02T02:10:15;1.88;;;1.40;;
295;SDS011;132;48.770;9.200;2023-04-02T02:12:46;1.92;;;1.50;;
295;SDS011;132;48.770;9.200;2023-04-02T02:15:14;1.30;;;1.30;;
295;SDS011;132;48.770;9.200;2023-04-02T02:17:42;2.97;;;1.40;;
295;SDS011;132;48.770;9.200;2023-04-02T02:20:09;2.42;;;1.40;;
295;SDS011;132;48.770;9.200;2023-04-02T02:22:38;1.20;;;1.20;;
295;SDS011;132;48.770;9.200;2023-04-02T02:25:10;2.20;;;1.27;;
295;SDS011;132;48.770;9.200;2023-04-02T02:30:24;1.75;;;1.40;;
295;SDS011;132;48.770;9.200;2023-04-02T02:35:38;1.50;;;1.40;;
295;SDS011;132;48.770;9.200;2023-04-02T02:41:12;1.95;;;1.27;;
295;SDS011;132;48.770;9.200;2023-04-02T02:43:42;1.95;;;1.20;;
295;SDS011;132;48.770;9.200;2023-04-02T02:46:30;2.15;;;1.30;;
295;SDS011;132;48.770;9.200;2023-04-02T02:48:58;1.70;;;1.30;;
295;SDS011;132;48.770;9.200;2023-04-02T02:51:39;1.30;;;1.15;;
295;SDS011;132;48.770;9.200;2023-04-02T02:54:39;1.55;;;1.30;;
295;SDS011;132;48.770;9.200;2023-04-02T02:57:31;2.35;;;1.40;;
295;SDS011;132;48.770;9.200;2023-04-02T03:00:07;3.63;;;1.40;;
295;SDS011;132;48.770;9.200;2023-04-02T03:02:37;2.45;;;1.30;;
295;SDS011;132;48.770;9.200;2023-04-02T03:05:08;1.40;;;1.20;;
295;SDS011;132;48.770;9.200;2023-04-02T03:07:41;1.75;;;1.30;;
295;SDS011;132;48.770;9.200;2023-04-02T03:12:48;2.05;;;1.50;;
295;SDS011;132;48.770;9.200;2023-04-02T03:20:46;2.58;;;1.38;;
295;SDS011;132;48.770;9.200;2023-04-02T03:25:58;3.13;;;1.80;;
295;SDS011;132;48.770;9.200;2023-04-02T03:28:26;1.63;;;1.23;;
295;SDS011;132;48.770;9.200;2023-04-02T03:30:58;2.80;;;1.40;;
295;SDS011;132;48.770;9.200;2023-04-02T03:33:33;2.00;;;1.38;;
295;SDS011;132;48.770;9.200;2023-04-02T03:38:56;1.88;;;1.50;;
295;SDS011;132;48.770;9.200;2023-04-02T03:41:30;2.60;;;1.60;;
295;SDS011;132;48.770;9.200;2023-04-02T03:44:06;1.50;;;1.40;;
295;SDS011;132;48.770;9.200;2023-04-02T03:46:52;5.40;;;1.70;;
295;SDS011;132;48.770;9.200;2023-04-02T03:49:29;3.75;;;1.80;;
295;SDS011;132;48.770;9.200;2023-04-02T03:52:12;5.68;;;2.00;;
295;SDS011;132;48.770;9.200;2023-04-02T03:54:41;1.90;;;1.40;;
295;SDS011;132;48.770;9.200;2023-04-02T03:57:10;1.70;;;1.40;;
295;SDS011;132;48.770;9.200;2023-04-02T03:59:54;1.40;;;1.40;;
295;SDS011;132;48.770;9.200;2023-04-02T04:02:50;1.40;;;1.30;;
295;SDS011;132;48.770;9.200;2023-04-02T04:08:02;1.40;;;1.38;;
295;SDS011;132;48.770;9.200;2023-04-02T04:10:32;1.20;;;1.20;;
295;SDS011;132;48.770;9.200;2023-04-02T04:13:14;1.65;;;1.30;;
295;SDS011;132;48.770;9.200;2023-04-02T04:15:53;3.08;;;1.40;;
295;SDS011;132;48.770;9.200;2023-04-02T04:18:28;1.88;;;1.40;;
295;SDS011;132;48.770;9.200;2023-04-02T04:21:14;2.72;;;1.30;;
295;SDS011;132;48.770;9.200;2023-04-02T04:23:56;2.67;;;1.75;;
295;SDS011;132;48.770;9.200;2023-04-02T04:26:36;1.92;;;1.40;;
295;SDS011;132;48.770;9.200;2023-04-02T04:29:31;1.70;;;1.40;;
295;SDS011;132;48.770;9.200;2023-04-02T04:32:09;1.85;;;1.30;;
295;SDS011;132;48.770;9.200;2023-04-02T04:35:21;1.40;;;1.40;;
295;SDS011;132;48.770;9.200;2023-04-02T04:38:27;2.75;;;1.40;;
295;SDS011;132;48.770;9.200;2023-04-02T04:40:57;2.15;;;1.40;;
295;SDS011;132;48.770;9.200;2023-04-02T04:46:03;1.48;;;1.30;;
295;SDS011;132;48.770;9.200;2023-04-02T04:48:35;1.83;;;1.35;;
295;SDS011;132;48.770;9.200;2023-04-02T04:51:20;1.80;;;1.40;;
295;SDS011;132;48.770;9.200;2023-04-02T04:53:55;1.50;;;1.40;;
295;SDS011;132;48.770;9.200;2023-04-02T04:56:26;1.90;;;1.40;;
295;SDS011;132;48.770;9.200;2023-04-02T04:59:05;1.48;;;1.40;;
295;SDS011;132;48.770;9.200;2023-04-02T05:10:16;2.88;;;1.50;;
295;SDS011;132;48.770;9.200;2023-04-02T05:15:26;1.90;;;1.50;;
295;SDS011;132;48.770;9.200;2023-04-02T05:23:36;2.58;;;1.40;;
295;SDS011;132;48.770;9.200;2023-04-02T05:26:29;1.40;;;1.30;;
295;SDS011;132;48.770;9.200;2023-04-02T05:29:07;1.60;;;1.50;;
295;SDS011;132;48.770;9.200;2023-04-02T05:31:45;2.05;;;1.35;;
295;SDS011;132;48.770;9.200;2023-04-02T05:34:24;1.67;;;1.27;;
295;SDS011;132;48.770;9.200;2023-04-02T05:36:55;4.45;;;1.58;;
295;SDS011;132;48.770;9.200;2023-04-02T05:39:22;1.33;;;1.30;;
295;SDS011;132;48.770;9.200;2023-04-02T05:42:00;2.45;;;1.65;;
295;SDS011;132;48.770;9.200;2023-04-02T05:47:34;2.03;;;1.50;;
295;SDS011;132;48.770;9.200;2023-04-02T05:52:46;4.22;;;1.50;;
295;SDS011;132;48.770;9.200;2023-04-02T05:57:48;1.75;;;1.42;;
295;SDS011;132;48.770;9.200;2023-04-02T06:03:24;2.10;;;1.50;;
295;SDS011;132;48.770;9.200;2023-04-02T06:05:55;1.73;;;1.42;;
295;SDS011;132;48.770;9.200;2023-04-02T06:08:30;2.03;;;1.40;;
295;SDS011;132;48.770;9.200;2023-04-02T06:11:04;1.65;;;1.60;;
295;SDS011;132;48.770;9.200;2023-04-02T06:13:37;1.90;;;1.58;;
295;SDS011;132;48.770;9.200;2023-04-02T06:16:05;1.30;;;1.30;;
295;SDS011;132;48.770;9.200;2023-04-02T06:18:33;1.80;;;1.60;;
295;SDS011;132;48.770;9.200;2023-04-02T06:21:02;2.63;;;1.50;;
295;SDS011;132;48.770;9.200;2023-04-02T06:23:39;2.80;;;1.60;;
295;SDS011;132;48.770;9.200;2023-04-02T06:26:23;1.98;;;1.60;;
295;SDS011;132;48.770;9.200;2023-04-02T06:31:43;2.90;;;1.77;;
295;SDS011;132;48.770;9.200;2023-04-02T06:34:15;1.52;;;1.40;;
295;SDS011;132;48.770;9.200;2023-04-02T06:37:00;1.90;;;1.75;;
295;SDS011;132;48.770;9.200;2023-04-02T06:39:31;1.63;;;1.40;;
295;SDS011;132;48.770;9.200;2023-04-02T06:45:01;3.00;;;1.70;;
295;SDS011;132;48.770;9.200;2023-04-02T06:47:49;3.30;;;1.70;;
295;SDS011;132;48.770;9.200;2023-04-02T06:53:03;1.83;;;1.60;;
295;SDS011;132;48.770;9.200;2023-04-02T06:58:13;2.67;;;1.70;;
295;SDS011;132;48.770;9.200;2023-04-02T07:00:42;2.58;;;1.90;;
295;SDS011;132;48.770;9.200;2023-04-02T07:03:18;2.78;;;1.60;;
295;SDS011;132;48.770;9.200;2023-04-02T07:05:46;1.77;;;1.70;;
295;SDS011;132;48.770;9.200;2023-04-02T07:08:13;2.30;;;1.70;;
295;SDS011;132;48.770;9.200;2023-04-02T07:10:39;2.43;;;1.60;;
295;SDS011;132;48.770;9.200;2023-04-02T07:13:07;1.93;;;1.60;;
295;SDS011;132;48.770;9.200;2023-04-02T07:15:42;2.40;;;1.70;;
295;SDS011;132;48.770;9.200;2023-04-02T07:18:24;3.40;;;1.70;;
295;SDS011;132;48.770;9.200;2023-04-02T07:20:52;2.33;;;1.60;;
295;SDS011;132;48.770;9.200;2023-04-02T07:23:19;2.57;;;1.70;;
295;SDS011;132;48.770;9.200;2023-04-02T07:25:47;3.13;;;1.73;;
295;SDS011;132;48.770;9.200;2023-04-02T07:28:15;3.03;;;1.70;;
295;SDS011;132;48.770;9.200;2023-04-02T07:30:42;3.17;;;1.90;;
295;SDS011;132;48.770;9.200;2023-04-02T07:33:12;2.70;;;1.50;;
295;SDS011;132;48.770;9.200;2023-04-02T07:35:39;1.40;;;1.40;;
295;SDS011;132;48.770;9.200;2023-04-02T07:38:06;5.50;;;1.70;;
295;SDS011;132;48.770;9.200;2023-04-02T07:40:32;3.60;;;1.70;;
295;SDS011;132;48.770;9.200;2023-04-02T07:42:59;2.20;;;1.60;;
295;SDS011;132;48.770;9.200;2023-04-02T07:45:25;2.30;;;1.70;;
295;SDS011;132;48.770;9.200;2023-04-02T07:47:52;1.90;;;1.60;;
295;SDS011;132;48.770;9.200;2023-04-02T07:50:19;1.40;;;1.40;;
295;SDS011;132;48.770;9.200;2023-04-02T07:52:45;3.67;;;1.60;;
295;SDS011;132;48.770;9.200;2023-04-02T07:55:13;4.40;;;1.97;;
295;SDS011;132;48.770;9.200;2023-04-02T07:57:50;2.63;;;1.80;;
295;SDS011;132;48.770;9.200;2023-04-02T08:00:19;2.80;;;1.60;;
295;SDS011;132;48.770;9.200;2023-04-02T08:02:45;2.70;;;1.50;;
295;SDS011;132;48.770;9.200;2023-04-02T08:05:12;2.03;;;1.57;;
295;SDS011;132;48.770;9.200;2023-04-02T08:07:39;2.03;;;1.80;;
295;SDS011;132;48.770;9.200;2023-04-02T08:10:07;1.87;;;1.50;;
295;SDS011;132;48.770;9.200;2023-04-02T08:12:35;2.40;;;1.60;;
295;SDS011;132;48.770;9.200;2023-04-02T08:15:02;2.77;;;1.60;;
295;SDS011;132;48.770;9.200;2023-04-02T08:17:31;1.90;;;1.50;;
295;SDS011;132;48.770;9.200;2023-04-02T08:19:58;3.90;;;1.70;;
295;SDS011;132;48.770;9.200;2023-04-02T08:22:29;3.30;;;1.80;;
295;SDS011;132;48.770;9.200;2023-04-02T08:24:56;2.77;;;1.73;;
295;SDS011;132;48.770;9.200;2023-04-02T08:27:23;2.60;;;1.90;;
295;SDS011;132;48.770;9.200;2023-04-02T08:29:50;3.37;;;2.20;;
295;SDS011;132;48.770;9.200;2023-04-02T08:32:16;3.17;;;2.33;;
295;SDS011;132;48.770;9.200;2023-04-02T08:34:43;3.50;;;2.37;;
295;SDS011;132;48.770;9.200;2023-04-02T08:37:10;3.40;;;2.60;;
295;SDS011;132;48.770;9.200;2023-04-02T08:39:37;6.77;;;3.87;;
295;SDS011;132;48.770;9.200;2023-04-02T08:45:03;3.93;;;2.90;;
295;SDS011;132;48.770;9.200;2023-04-02T08:47:48;2.73;;;2.20;;
295;SDS011;132;48.770;9.200;2023-04-02T08:50:32;5.17;;;2.00;;
295;SDS011;132;48.770;9.200;2023-04-02T08:53:01;3.70;;;1.90;;
295;SDS011;132;48.770;9.200;2023-04-02T08:58:25;3.20;;;2.07;;
295;SDS011;132;48.770;9.200;2023-04-02T09:01:06;2.53;;;2.07;;
295;SDS011;132;48.770;9.200;2023-04-02T09:03:57;7.60;;;2.77;;
295;SDS011;132;48.770;9.200;2023-04-02T09:06:24;3.07;;;2.30;;
295;SDS011;132;48.770;9.200;2023-04-02T09:08:52;3.20;;;2.20;;
295;SDS011;132;48.770;9.200;2023-04-02T09:13:47;2.53;;;1.90;;
295;SDS011;132;48.770;9.200;2023-04-02T09:16:19;3.07;;;1.90;;
295;SDS011;132;48.770;9.200;2023-04-02T09:18:59;3.03;;;2.10;;
295;SDS011;132;48.770;9.200;2023-04-02T09:21:36;3.60;;;2.10;;
295;SDS011;132;48.770;9.200;2023-04-02T09:24:09;5.53;;;2.57;;
295;SDS011;132;48.770;9.200;2023-04-02T09:26:38;5.00;;;2.50;;
295;SDS011;132;48.770;9.200;2023-04-02T09:31:43;1.93;;;1.90;;
295;SDS011;132;48.770;9.200;2023-04-02T09:34:29;2.57;;;2.00;;
295;SDS011;132;48.770;9.200;2023-04-02T09:37:08;5.17;;;2.20;;
295;SDS011;132;48.770;9.200;2023-04-02T09:39:41;2.20;;;1.93;;
295;SDS011;132;48.770;9.200;2023-04-02T09:42:27;5.70;;;2.20;;
295;SDS011;132;48.770;9.200;2023-04-02T09:45:11;3.77;;;2.10;;
295;SDS011;132;48.770;9.200;2023-04-02T09:47:43;3.50;;;2.10;;
295;SDS011;132;48.770;9.200;2023-04-02T09:50:13;1.90;;;1.83;;
295;SDS011;132;48.770;9.200;2023-04-02T09:52:46;2.37;;;2.00;;
295;SDS011;132;48.770;9.200;2023-04-02T09:57:40;8.40;;;3.00;;
295;SDS011;132;48.770;9.200;2023-04-02T10:00:15;3.07;;;2.23;;
295;SDS011;132;48.770;9.200;2023-04-02T10:05:45;2.10;;;1.80;;
295;SDS011;132;48.770;9.200;2023-04-02T10:08:23;2.00;;;1.90;;
295;SDS011;132;48.770;9.200;2023-04-02T10:10:56;2.17;;;1.80;;
295;SDS011;132;48.770;9.200;2023-04-02T10:13:27;2.03;;;1.77;;
295;SDS011;132;48.770;9.200;2023-04-02T10:18:58;4.83;;;1.73;;
295;SDS011;132;48.770;9.200;2023-04-02T10:21:32;1.90;;;1.90;;
295;SDS011;132;48.770;9.200;2023-04-02T10:24:00;2.10;;;1.60;;
295;SDS011;132;48.770;9.200;2023-04-02T10:26:45;2.50;;;1.80;;
295;SDS011;132;48.770;9.200;2023-04-02T10:35:02;2.37;;;1.73;;
295;SDS011;132;48.770;9.200;2023-04-02T10:48:38;1.70;;;1.60;;
295;SDS011;132;48.770;9.200;2023-04-02T10:53:55;2.00;;;1.90;;
295;SDS011;132;48.770;9.200;2023-04-02T10:56:29;3.90;;;1.80;;
295;SDS011;132;48.770;9.200;2023-04-02T11:01:49;2.00;;;1.90;;
295;SDS011;132;48.770;9.200;2023-04-02T11:04:25;1.93;;;1.80;;
295;SDS011;132;48.770;9.200;2023-04-02T11:06:59;2.27;;;1.80;;
295;SDS011;132;48.770;9.200;2023-04-02T11:09:32;3.00;;;2.00;;
295;SDS011;132;48.770;9.200;2023-04-02T11:12:03;2.97;;;2.00;;
295;SDS011;132;48.770;9.200;2023-04-02T11:14:31;5.73;;;2.10;;
295;SDS011;132;48.770;9.200;2023-04-02T11:16:59;2.73;;;1.80;;
295;SDS011;132;48.770;9.200;2023-04-02T11:19:31;3.47;;;1.90;;
295;SDS011;132;48.770;9.200;2023-04-02T11:22:03;3.30;;;2.27;;
295;SDS011;132;48.770;9.200;2023-04-02T11:27:19;3.00;;;1.90;;
295;SDS011;132;48.770;9.200;2023-04-02T11:32:40;2.00;;;1.40;;
295;SDS011;132;48.770;9.200;2023-04-02T11:40:44;2.10;;;1.50;;
295;SDS011;132;48.770;9.200;2023-04-02T11:45:58;3.57;;;1.63;;
295;SDS011;132;48.770;9.200;2023-04-02T11:48:30;3.60;;;1.60;;
295;SDS011;132;48.770;9.200;2023-04-02T11:51:09;1.50;;;1.40;;
295;SDS011;132;48.770;9.200;2023-04-02T11:53:37;1.40;;;1.40;;
295;SDS011;132;48.770;9.200;2023-04-02T12:01:44;2.00;;;1.60;;
295;SDS011;132;48.770;9.200;2023-04-02T12:11:43;1.60;;;1.60;;
295;SDS011;132;48.770;9.200;2023-04-02T12:16:57;2.00;;;1.50;;
295;SDS011;132;48.770;9.200;2023-04-02T12:19:24;1.93;;;1.63;;
295;SDS011;132;48.770;9.200;2023-04-02T12:21:51;1.60;;;1.50;;
295;SDS011;132;48.770;9.200;2023-04-02T12:24:20;1.50;;;1.40;;
295;SDS011;132;48.770;9.200;2023-04-02T12:26:48;1.60;;;1.50;;
295;SDS011;132;48.770;9.200;2023-04-02T12:29:31;2.90;;;1.40;;
295;SDS011;132;48.770;9.200;2023-04-02T12:31:58;1.63;;;1.40;;
295;SDS011;132;48.770;9.200;2023-04-02T12:34:26;1.63;;;1.40;;
295;SDS011;132;48.770;9.200;2023-04-02T12:37:01;1.80;;;1.50;;
295;SDS011;132;48.770;9.200;2023-04-02T12:39:30;2.17;;;1.50;;
295;SDS011;132;48.770;9.200;2023-04-02T12:41:57;1.97;;;1.53;;
295;SDS011;132;48.770;9.200;2023-04-02T12:44:27;1.70;;;1.50;;
295;SDS011;132;48.770;9.200;2023-04-02T12:46:55;1.60;;;1.60;;
295;SDS011;132;48.770;9.200;2023-04-02T12:49:29;1.77;;;1.60;;
295;SDS011;132;48.770;9.200;2023-04-02T12:52:08;2.10;;;1.47;;
295;SDS011;132;48.770;9.200;2023-04-02T12:54:42;1.70;;;1.60;;
295;SDS011;132;48.770;9.200;2023-04-02T12:59:50;2.10;;;1.37;;
295;SDS011;132;48.770;9.200;2023-04-02T13:02:26;2.37;;;2.00;;
295;SDS011;132;48.770;9.200;2023-04-02T13:04:55;4.63;;;3.23;;
295;SDS011;132;48.770;9.200;2023-04-02T13:07:26;1.93;;;1.73;;
295;SDS011;132;48.770;9.200;2023-04-02T13:09:59;1.50;;;1.43;;
295;SDS011;132;48.770;9.200;2023-04-02T13:12:31;1.37;;;1.30;;
295;SDS011;132;48.770;9.200;2023-04-02T13:15:02;1.80;;;1.40;;
295;SDS011;132;48.770;9.200;2023-04-02T13:17:41;1.80;;;1.70;;
295;SDS011;132;48.770;9.200;2023-04-02T13:23:23;1.97;;;1.90;;
295;SDS011;132;48.770;9.200;2023-04-02T13:25:57;3.00;;;2.30;;
295;SDS011;132;48.770;9.200;2023-04-02T13:28:25;2.87;;;2.30;;
295;SDS011;132;48.770;9.200;2023-04-02T13:30:53;3.80;;;2.20;;
295;SDS011;132;48.770;9.200;2023-04-02T13:33:20;3.20;;;2.30;;
295;SDS011;132;48.770;9.200;2023-04-02T13:35:46;4.20;;;2.60;;
295;SDS011;132;48.770;9.200;2023-04-02T13:38:13;2.80;;;2.17;;
295;SDS011;132;48.770;9.200;2023-04-02T13:40:39;5.53;;;2.40;;
295;SDS011;132;48.770;9.200;2023-04-02T13:43:06;2.53;;;2.33;;
295;SDS011;132;48.770;9.200;2023-04-02T13:45:40;2.53;;;2.33;;
295;SDS011;132;48.770;9.200;2023-04-02T13:48:08;4.20;;;2.60;;
295;SDS011;132;48.770;9.200;2023-04-02T13:50:39;3.87;;;2.70;;
295;SDS011;132;48.770;9.200;2023-04-02T13:53:06;4.30;;;3.30;;
295;SDS011;132;48.770;9.200;2023-04-02T13:55:38;5.53;;;3.10;;
295;SDS011;132;48.770;9.200;2023-04-02T13:58:07;3.10;;;2.83;;
295;SDS011;132;48.770;9.200;2023-04-02T14:00:36;3.80;;;2.90;;
295;SDS011;132;48.770;9.200;2023-04-02T14:03:07;3.67;;;2.93;;
295;SDS011;132;48.770;9.200;2023-04-02T14:08:37;2.60;;;2.40;;
295;SDS011;132;48.770;9.200;2023-04-02T14:16:46;3.43;;;2.83;;
295;SDS011;132;48.770;9.200;2023-04-02T14:19:51;3.93;;;3.20;;
295;SDS011;132;48.770;9.200;2023-04-02T14:22:44;3.00;;;2.80;;
295;SDS011;132;48.770;9.200;2023-04-02T14:28:10;2.80;;;2.63;;
295;SDS011;132;48.770;9.200;2023-04-02T14:33:50;6.63;;;3.87;;
295;SDS011;132;48.770;9.200;2023-04-02T14:39:27;3.77;;;2.90;;
295;SDS011;132;48.770;9.200;2023-04-02T14:42:04;3.25;;;2.78;;
295;SDS011;132;48.770;9.200;2023-04-02T14:44:48;2.97;;;2.70;;
295;SDS011;132;48.770;9.200;2023-04-02T14:50:28;3.50;;;2.97;;
295;SDS011;132;48.770;9.200;2023-04-02T14:53:06;3.37;;;2.40;;
295;SDS011;132;48.770;9.200;2023-04-02T14:55:40;3.40;;;2.90;;
295;SDS011;132;48.770;9.200;2023-04-02T14:58:29;3.38;;;2.58;;
295;SDS011;132;48.770;9.200;2023-04-02T15:01:10;2.88;;;2.50;;
295;SDS011;132;48.770;9.200;2023-04-02T15:04:10;3.28;;;2.85;;
295;SDS011;132;48.770;9.200;2023-04-02T15:06:44;2.97;;;2.70;;
295;SDS011;132;48.770;9.200;2023-04-02T15:09:19;8.97;;;5.40;;
295;SDS011;132;48.770;9.200;2023-04-02T15:17:43;3.05;;;2.70;;
295;SDS011;132;48.770;9.200;2023-04-02T15:20:16;2.75;;;2.55;;
295;SDS011;132;48.770;9.200;2023-04-02T15:31:10;4.00;;;2.83;;
295;SDS011;132;48.770;9.200;2023-04-02T15:38:49;5.05;;;3.10;;
295;SDS011;132;48.770;9.200;2023-04-02T15:41:40;3.80;;;2.92;;
295;SDS011;132;48.770;9.200;2023-04-02T15:44:16;5.30;;;3.55;;
295;SDS011;132;48.770;9.200;2023-04-02T15:54:20;3.45;;;2.80;;
295;SDS011;132;48.770;9.200;2023-04-02T16:11:39;4.47;;;3.25;;
295;SDS011;132;48.770;9.200;2023-04-02T16:16:40;4.45;;;3.20;;
295;SDS011;132;48.770;9.200;2023-04-02T16:24:47;4.38;;;3.90;;
295;SDS011;132;48.770;9.200;2023-04-02T16:38:13;3.60;;;3.10;;
295;SDS011;132;48.770;9.200;2023-04-02T16:41:02;3.50;;;3.20;;
295;SDS011;132;48.770;9.200;2023-04-02T16:43:43;4.97;;;2.70;;
295;SDS011;132;48.770;9.200;2023-04-02T16:46:54;3.85;;;2.80;;
295;SDS011;132;48.770;9.200;2023-04-02T16:55:21;3.10;;;2.85;;
295;SDS011;132;48.770;9.200;2023-04-02T16:58:12;3.60;;;3.20;;
295;SDS011;132;48.770;9.200;2023-04-02T17:00:55;3.67;;;3.00;;
295;SDS011;132;48.770;9.200;2023-04-02T17:09:14;3.50;;;3.10;;
295;SDS011;132;48.770;9.200;2023-04-02T17:11:49;7.88;;;3.70;;
295;SDS011;132;48.770;9.200;2023-04-02T17:14:24;3.78;;;3.10;;
295;SDS011;132;48.770;9.200;2023-04-02T17:17:00;3.35;;;3.03;;
295;SDS011;132;48.770;9.200;2023-04-02T17:19:28;3.20;;;2.92;;
295;SDS011;132;48.770;9.200;2023-04-02T17:21:57;4.93;;;3.17;;
295;SDS011;132;48.770;9.200;2023-04-02T17:29:51;4.03;;;3.03;;
295;SDS011;132;48.770;9.200;2023-04-02T17:32:21;3.10;;;2.92;;
295;SDS011;132;48.770;9.200;2023-04-02T17:37:47;3.83;;;2.85;;
295;SDS011;132;48.770;9.200;2023-04-02T17:49:18;5.57;;;3.80;;
295;SDS011;132;48.770;9.200;2023-04-02T17:52:22;6.15;;;3.67;;
295;SDS011;132;48.770;9.200;2023-04-02T18:05:43;4.40;;;3.55;;
295;SDS011;132;48.770;9.200;2023-04-02T18:20:09;5.03;;;4.00;;
295;SDS011;132;48.770;9.200;2023-04-02T18:23:07;5.30;;;4.30;;
295;SDS011;132;48.770;9.200;2023-04-02T18:25:54;6.03;;;4.32;;
295;SDS011;132;48.770;9.200;2023-04-02T18:28:39;7.80;;;4.65;;
295;SDS011;132;48.770;9.200;2023-04-02T18:36:52;6.90;;;4.70;;
295;SDS011;132;48.770;9.200;2023-04-02T18:42:45;5.15;;;4.00;;
295;SDS011;132;48.770;9.200;2023-04-02T18:45:29;5.10;;;4.25;;
295;SDS011;132;48.770;9.200;2023-04-02T18:48:33;6.00;;;4.60;;
295;SDS011;132;48.770;9.200;2023-04-02T18:51:09;7.35;;;5.00;;
295;SDS011;132;48.770;9.200;2023-04-02T18:53:50;9.95;;;4.82;;
295;SDS011;132;48.770;9.200;2023-04-02T18:56:38;9.93;;;6.50;;
295;SDS011;132;48.770;9.200;2023-04-02T19:01:53;7.78;;;5.28;;
295;SDS011;132;48.770;9.200;2023-04-02T19:04:26;7.25;;;5.00;;
295;SDS011;132;48.770;9.200;2023-04-02T19:06:56;8.07;;;5.15;;
295;SDS011;132;48.770;9.200;2023-04-02T19:09:33;6.65;;;4.30;;
295;SDS011;132;48.770;9.200;2023-04-02T19:12:16;8.48;;;4.95;;
295;SDS011;132;48.770;9.200;2023-04-02T19:14:44;7.00;;;4.80;;
295;SDS011;132;48.770;9.200;2023-04-02T19:22:44;5.60;;;4.40;;
295;SDS011;132;48.770;9.200;2023-04-02T19:28:22;6.00;;;4.30;;
295;SDS011;132;48.770;9.200;2023-04-02T19:34:10;5.30;;;3.90;;
295;SDS011;132;48.770;9.200;2023-04-02T19:40:50;4.30;;;3.53;;
295;SDS011;132;48.770;9.200;2023-04-02T19:43:00;4.57;;;3.65;;
295;SDS011;132;48.770;9.200;2023-04-02T19:45:28;5.72;;;4.30;;
295;SDS011;132;48.770;9.200;2023-04-02T19:48:13;6.50;;;4.53;;
295;SDS011;132;48.770;9.200;2023-04-02T19:50:42;5.65;;;4.30;;
295;SDS011;132;48.770;9.200;2023-04-02T19:53:09;7.10;;;4.00;;
295;SDS011;132;48.770;9.200;2023-04-02T19:55:36;5.63;;;4.30;;
295;SDS011;132;48.770;9.200;2023-04-02T19:58:03;7.47;;;4.20;;
295;SDS011;132;48.770;9.200;2023-04-02T20:00:30;9.68;;;3.88;;
295;SDS011;132;48.770;9.200;2023-04-02T20:02:57;6.25;;;4.45;;
295;SDS011;132;48.770;9.200;2023-04-02T20:05:23;6.85;;;3.92;;
295;SDS011;132;48.770;9.200;2023-04-02T20:07:50;8.10;;;4.05;;
295;SDS011;132;48.770;9.200;2023-04-02T20:10:16;7.05;;;4.25;;
295;SDS011;132;48.770;9.200;2023-04-02T20:12:43;6.47;;;4.10;;
295;SDS011;132;48.770;9.200;2023-04-02T20:15:09;10.50;;;4.45;;
295;SDS011;132;48.770;9.200;2023-04-02T20:17:36;5.07;;;3.70;;
295;SDS011;132;48.770;9.200;2023-04-02T20:20:02;8.40;;;4.38;;
295;SDS011;132;48.770;9.200;2023-04-02T20:22:29;8.38;;;4.93;;
295;SDS011;132;48.770;9.200;2023-04-02T20:24:55;5.70;;;3.92;;
295;SDS011;132;48.770;9.200;2023-04-02T20:27:22;8.65;;;4.20;;
295;SDS011;132;48.770;9.200;2023-04-02T20:29:48;4.75;;;3.65;;
295;SDS011;132;48.770;9.200;2023-04-02T20:32:14;9.43;;;4.25;;
295;SDS011;132;48.770;9.200;2023-04-02T20:34:42;5.85;;;3.88;;
295;SDS011;132;48.770;9.200;2023-04-02T20:37:08;6.20;;;3.58;;
295;SDS011;132;48.770;9.200;2023-04-02T20:39:35;4.63;;;3.80;;
295;SDS011;132;48.770;9.200;2023-04-02T20:42:02;5.50;;;3.75;;
295;SDS011;132;48.770;9.200;2023-04-02T20:44:28;5.13;;;3.78;;
295;SDS011;132;48.770;9.200;2023-04-02T20:46:54;7.50;;;4.05;;
295;SDS011;132;48.770;9.200;2023-04-02T20:49:21;5.80;;;3.35;;
295;SDS011;132;48.770;9.200;2023-04-02T20:51:47;5.47;;;3.75;;
295;SDS011;132;48.770;9.200;2023-04-02T20:54:14;6.15;;;3.80;;
295;SDS011;132;48.770;9.200;2023-04-02T20:56:40;6.32;;;4.00;;
295;SDS011;132;48.770;9.200;2023-04-02T20:59:07;5.28;;;3.75;;
295;SDS011;132;48.770;9.200;2023-04-02T21:01:34;6.95;;;4.00;;
295;SDS011;132;48.770;9.200;2023-04-02T21:04:01;4.70;;;3.40;;
295;SDS011;132;48.770;9.200;2023-04-02T21:06:29;4.63;;;3.53;;
295;SDS011;132;48.770;9.200;2023-04-02T21:08:57;6.93;;;4.32;;
295;SDS011;132;48.770;9.200;2023-04-02T21:11:25;6.38;;;4.28;;
295;SDS011;132;48.770;9.200;2023-04-02T21:13:52;6.00;;;3.80;;
295;SDS011;132;48.770;9.200;2023-04-02T21:16:25;5.95;;;3.85;;
295;SDS011;132;48.770;9.200;2023-04-02T21:18:54;4.78;;;3.60;;
295;SDS011;132;48.770;9.200;2023-04-02T21:21:42;6.43;;;3.80;;
295;SDS011;132;48.770;9.200;2023-04-02T21:24:09;4.82;;;3.47;;
295;SDS011;132;48.770;9.200;2023-04-02T21:26:37;5.30;;;3.78;;
295;SDS011;132;48.770;9.200;2023-04-02T21:31:38;6.68;;;4.00;;
295;SDS011;132;48.770;9.200;2023-04-02T21:34:05;5.85;;;3.80;;
295;SDS011;132;48.770;9.200;2023-04-02T21:36:34;4.97;;;3.60;;
295;SDS011;132;48.770;9.200;2023-04-02T21:39:05;4.18;;;3.28;;
295;SDS011;132;48.770;9.200;2023-04-02T21:41:41;8.93;;;4.20;;
295;SDS011;132;48.770;9.200;2023-04-02T21:44:11;4.35;;;3.55;;
295;SDS011;132;48.770;9.200;2023-04-02T21:46:39;5.70;;;4.00;;
295;SDS011;132;48.770;9.200;2023-04-02T21:49:09;4.50;;;3.60;;
295;SDS011;132;48.770;9.200;2023-04-02T21:51:37;6.32;;;4.05;;
295;SDS011;132;48.770;9.200;2023-04-02T21:54:05;3.70;;;3.40;;
295;SDS011;132;48.770;9.200;2023-04-02T21:56:34;5.15;;;4.00;;
295;SDS011;132;48.770;9.200;2023-04-02T21:59:02;8.82;;;4.07;;
295;SDS011;132;48.770;9.200;2023-04-02T22:01:31;8.00;;;4.22;;
295;SDS011;132;48.770;9.200;2023-04-02T22:04:00;5.75;;;3.90;;